Time;durP1;ratioP1;P1;durP2;ratioP2;P2;SDS_P1;SDS_P2;PMS_P1;PMS_P2;Temp;Humidity;BMP_temperature;BMP_pressure;BME280_temperature;BME280_humidity;BME280_pressure;Samples;Min_cycle;Max_cycle;Signal;HPM_P1;HPM_P2
2021/03/03 00:02:13;;;;;;;19.23;10.13;;;;;;;;;;5071378;28;20822;-50
2021/03/03 00:04:39;;;;;;;15.20;9.07;;;;;;;;;;5070094;28;20428;-50
2021/03/03 00:07:05;;;;;;;19.30;11.60;;;;;;;;;;5071402;28;20399;-50
2021/03/03 00:09:31;;;;;;;16.57;9.53;;;;;;;;;;5072186;28;20428;-50
2021/03/03 00:11:57;;;;;;;15.13;9.60;;;;;;;;;;5091924;28;20404;-50
2021/03/03 00:14:23;;;;;;;15.53;10.40;;;;;;;;;;5081439;28;20454;-50
2021/03/03 00:16:49;;;;;;;14.90;11.23;;;;;;;;;;5071215;28;20448;-50
2021/03/03 00:19:15;;;;;;;18.00;9.97;;;;;;;;;;5071004;28;20401;-50
2021/03/03 00:21:41;;;;;;;16.40;9.97;;;;;;;;;;5071411;28;20467;-50
2021/03/03 00:24:07;;;;;;;15.27;9.90;;;;;;;;;;5071073;28;20427;-50
2021/03/03 00:26:33;;;;;;;19.67;9.90;;;;;;;;;;5071127;28;20488;-50
2021/03/03 00:28:59;;;;;;;18.73;10.70;;;;;;;;;;5070877;28;20403;-50
2021/03/03 00:31:25;;;;;;;17.70;10.00;;;;;;;;;;5070991;28;20412;-51
2021/03/03 00:33:51;;;;;;;17.60;10.40;;;;;;;;;;5070714;28;20446;-50
2021/03/03 00:36:17;;;;;;;19.60;10.70;;;;;;;;;;5070975;28;20392;-50
2021/03/03 00:38:43;;;;;;;15.83;9.70;;;;;;;;;;5070650;28;20440;-51
2021/03/03 00:41:09;;;;;;;14.40;9.70;;;;;;;;;;5070844;28;20448;-50
2021/03/03 00:43:35;;;;;;;15.40;10.03;;;;;;;;;;5070720;28;20460;-51
2021/03/03 00:46:01;;;;;;;20.80;10.93;;;;;;;;;;5070638;28;20471;-50
2021/03/03 00:48:27;;;;;;;18.20;10.97;;;;;;;;;;5070741;28;20409;-51
2021/03/03 00:50:53;;;;;;;18.50;10.33;;;;;;;;;;5070670;28;20420;-50
2021/03/03 00:53:19;;;;;;;17.53;10.60;;;;;;;;;;5070697;28;20830;-51
2021/03/03 00:55:53;;;;;;;20.40;10.43;;;;;;;;;;5070555;28;20442;-51
2021/03/03 00:58:20;;;;;;;19.37;9.53;;;;;;;;;;5070415;28;20785;-50
2021/03/03 01:00:46;;;;;;;18.40;9.87;;;;;;;;;;5070498;28;20452;-50
2021/03/03 01:03:12;;;;;;;23.37;10.70;;;;;;;;;;5070612;28;21150;-51
2021/03/03 01:05:42;;;;;;;23.07;11.93;;;;;;;;;;5070540;28;20403;-50
2021/03/03 01:08:08;;;;;;;21.00;10.43;;;;;;;;;;5070369;28;20511;-50
2021/03/03 01:10:34;;;;;;;17.53;10.37;;;;;;;;;;5069884;28;20455;-50
2021/03/03 01:13:00;;;;;;;19.93;10.10;;;;;;;;;;5070433;28;20463;-50
2021/03/03 01:15:27;;;;;;;19.93;10.47;;;;;;;;;;5071156;28;20451;-50
2021/03/03 01:18:00;;;;;;;18.27;10.23;;;;;;;;;;5074516;28;20888;-50
2021/03/03 01:20:26;;;;;;;21.93;10.60;;;;;;;;;;5075029;28;20632;-50
2021/03/03 01:22:52;;;;;;;18.53;11.63;;;;;;;;;;5074384;28;20395;-50
2021/03/03 01:25:18;;;;;;;19.33;10.70;;;;;;;;;;5074542;28;20435;-50
2021/03/03 01:27:44;;;;;;;25.90;11.23;;;;;;;;;;5074024;28;20439;-50
2021/03/03 01:30:10;;;;;;;23.40;13.10;;;;;;;;;;5074433;28;20901;-50
2021/03/03 01:32:36;;;;;;;23.20;10.47;;;;;;;;;;5074185;28;20773;-50
2021/03/03 01:35:02;;;;;;;18.80;10.53;;;;;;;;;;5074286;28;20426;-50
2021/03/03 01:37:28;;;;;;;20.53;11.33;;;;;;;;;;5073931;28;20399;-50
2021/03/03 01:39:54;;;;;;;22.33;12.77;;;;;;;;;;5074427;28;20442;-50
2021/03/03 01:42:20;;;;;;;21.57;10.90;;;;;;;;;;5074105;28;20458;-50
2021/03/03 01:44:46;;;;;;;20.20;10.50;;;;;;;;;;5073928;28;20450;-50
2021/03/03 01:47:12;;;;;;;18.47;10.90;;;;;;;;;;5073868;28;20940;-50
2021/03/03 01:49:39;;;;;;;17.70;10.20;;;;;;;;;;5073933;28;20474;-50
2021/03/03 01:52:07;;;;;;;21.70;11.47;;;;;;;;;;5074052;28;20407;-50
2021/03/03 01:54:33;;;;;;;15.90;10.00;;;;;;;;;;5073731;28;20420;-50
2021/03/03 01:56:59;;;;;;;18.00;10.77;;;;;;;;;;5073725;28;20442;-50
2021/03/03 01:59:25;;;;;;;14.97;9.13;;;;;;;;;;5073803;28;20430;-50
2021/03/03 02:01:52;;;;;;;20.83;11.27;;;;;;;;;;5073304;28;20459;-50
2021/03/03 02:04:18;;;;;;;18.87;10.60;;;;;;;;;;5073151;28;20535;-50
2021/03/03 02:06:44;;;;;;;22.00;10.93;;;;;;;;;;5073673;28;20946;-50
2021/03/03 02:09:15;;;;;;;18.27;11.07;;;;;;;;;;5081155;28;20559;-50
2021/03/03 02:11:51;;;;;;;19.87;10.77;;;;;;;;;;5094376;28;20755;-50
2021/03/03 02:14:20;;;;;;;18.40;11.20;;;;;;;;;;5093816;28;20419;-51
2021/03/03 02:16:47;;;;;;;23.90;11.80;;;;;;;;;;5093779;28;20408;-50
2021/03/03 02:19:18;;;;;;;19.97;11.50;;;;;;;;;;5093750;28;20399;-50
2021/03/03 02:21:46;;;;;;;17.60;11.20;;;;;;;;;;5093492;28;20455;-50
2021/03/03 02:24:18;;;;;;;17.27;10.67;;;;;;;;;;5093901;28;20430;-50
2021/03/03 02:26:45;;;;;;;17.40;10.97;;;;;;;;;;5093253;28;20487;-50
2021/03/03 02:29:13;;;;;;;20.33;10.30;;;;;;;;;;5093355;28;20896;-50
2021/03/03 02:31:40;;;;;;;19.30;10.20;;;;;;;;;;5093390;28;20399;-50
2021/03/03 02:34:07;;;;;;;17.97;10.87;;;;;;;;;;5093224;28;20450;-50
2021/03/03 02:36:33;;;;;;;19.77;11.00;;;;;;;;;;5093375;28;20431;-53
2021/03/03 02:38:59;;;;;;;16.93;10.03;;;;;;;;;;5088470;28;20467;-50
2021/03/03 02:41:28;;;;;;;25.00;9.77;;;;;;;;;;5072888;28;20494;-50
2021/03/03 02:43:56;;;;;;;16.00;10.40;;;;;;;;;;5072870;28;20448;-50
2021/03/03 02:46:22;;;;;;;19.90;10.80;;;;;;;;;;5073016;28;21053;-50
2021/03/03 02:48:48;;;;;;;15.87;9.53;;;;;;;;;;5072637;28;20400;-50
2021/03/03 02:51:14;;;;;;;16.03;10.20;;;;;;;;;;5072998;28;21095;-50
2021/03/03 02:53:41;;;;;;;21.47;10.70;;;;;;;;;;5072704;28;20427;-51
2021/03/03 02:56:07;;;;;;;17.87;10.87;;;;;;;;;;5086843;28;20833;-50
2021/03/03 02:58:38;;;;;;;19.50;10.73;;;;;;;;;;5092757;28;20442;-50
2021/03/03 03:01:07;;;;;;;22.10;10.90;;;;;;;;;;5092259;28;21047;-50
2021/03/03 03:03:36;;;;;;;19.60;10.50;;;;;;;;;;5092714;28;20428;-50
2021/03/03 03:06:09;;;;;;;18.30;11.77;;;;;;;;;;5092897;28;20403;-50
2021/03/03 03:08:35;;;;;;;19.37;10.67;;;;;;;;;;5092599;28;20429;-51
2021/03/03 03:11:07;;;;;;;20.37;11.07;;;;;;;;;;5092762;28;20913;-50
2021/03/03 03:13:34;;;;;;;25.70;10.23;;;;;;;;;;5092476;28;20483;-49
2021/03/03 03:16:02;;;;;;;20.37;10.13;;;;;;;;;;5091288;28;20435;-50
2021/03/03 03:18:34;;;;;;;20.70;9.70;;;;;;;;;;5092433;28;20494;-50
2021/03/03 03:21:02;;;;;;;21.00;9.93;;;;;;;;;;5092463;28;20799;-50
2021/03/03 03:23:28;;;;;;;18.83;10.00;;;;;;;;;;5092505;28;21005;-51
2021/03/03 03:25:55;;;;;;;19.60;10.27;;;;;;;;;;5092460;28;20784;-50
2021/03/03 03:28:24;;;;;;;21.47;10.17;;;;;;;;;;5092119;28;20760;-51
2021/03/03 03:30:51;;;;;;;18.30;9.90;;;;;;;;;;5092416;28;20399;-50
2021/03/03 03:33:18;;;;;;;19.07;11.10;;;;;;;;;;5090259;28;20459;-49
2021/03/03 03:35:44;;;;;;;21.47;11.83;;;;;;;;;;5092155;28;20418;-53
2021/03/03 03:38:10;;;;;;;18.80;11.77;;;;;;;;;;5091374;28;20408;-51
2021/03/03 03:40:36;;;;;;;19.33;11.47;;;;;;;;;;5092072;28;20483;-50
2021/03/03 03:43:03;;;;;;;25.57;11.47;;;;;;;;;;5092117;28;20501;-49
2021/03/03 03:45:29;;;;;;;22.73;10.30;;;;;;;;;;5092039;28;20399;-49
2021/03/03 03:47:58;;;;;;;19.90;11.20;;;;;;;;;;5092008;28;20438;-49
2021/03/03 03:50:26;;;;;;;23.27;12.40;;;;;;;;;;5092266;28;20411;-49
2021/03/03 03:52:53;;;;;;;23.30;11.00;;;;;;;;;;5075348;28;20424;-50
2021/03/03 03:55:19;;;;;;;24.13;10.90;;;;;;;;;;5071831;28;20491;-49
2021/03/03 03:57:52;;;;;;;24.93;10.07;;;;;;;;;;5071301;28;20527;-49
2021/03/03 04:00:21;;;;;;;26.23;10.40;;;;;;;;;;5071595;28;20890;-53
2021/03/03 04:02:48;;;;;;;25.03;11.77;;;;;;;;;;5071551;28;20405;-50
2021/03/03 04:05:14;;;;;;;23.90;11.00;;;;;;;;;;5071745;28;20400;-50
2021/03/03 04:07:41;;;;;;;20.43;10.27;;;;;;;;;;5071393;28;20469;-52
2021/03/03 04:10:08;;;;;;;20.67;9.13;;;;;;;;;;5071636;28;20498;-50
2021/03/03 04:12:34;;;;;;;19.77;10.33;;;;;;;;;;5070988;28;20400;-50
2021/03/03 04:14:59;;;;;;;17.67;9.33;;;;;;;;;;5071357;28;20968;-49
2021/03/03 04:17:25;;;;;;;26.50;10.83;;;;;;;;;;5071058;28;20492;-49
2021/03/03 04:19:51;;;;;;;18.40;10.20;;;;;;;;;;5071367;28;20413;-50
2021/03/03 04:22:18;;;;;;;17.80;11.57;;;;;;;;;;5071155;28;20504;-50
2021/03/03 04:24:44;;;;;;;26.13;11.30;;;;;;;;;;5070962;28;20460;-49
2021/03/03 04:27:11;;;;;;;23.40;11.23;;;;;;;;;;5070902;28;20399;-49
2021/03/03 04:29:37;;;;;;;22.40;10.40;;;;;;;;;;5070988;28;20395;-50
2021/03/03 04:32:05;;;;;;;23.77;12.40;;;;;;;;;;5071070;28;20410;-51
2021/03/03 04:34:31;;;;;;;18.67;11.53;;;;;;;;;;5070706;28;20841;-51
2021/03/03 04:36:57;;;;;;;24.73;11.30;;;;;;;;;;5070784;28;20400;-52
2021/03/03 04:39:23;;;;;;;24.53;11.97;;;;;;;;;;5070510;28;20432;-52
2021/03/03 04:41:50;;;;;;;23.03;11.43;;;;;;;;;;5070804;28;20509;-52
2021/03/03 04:44:16;;;;;;;21.57;11.00;;;;;;;;;;5070713;28;20540;-49
2021/03/03 04:46:43;;;;;;;24.63;11.67;;;;;;;;;;5070846;28;20556;-51
2021/03/03 04:49:09;;;;;;;19.20;11.30;;;;;;;;;;5070510;28;20440;-51
2021/03/03 04:51:37;;;;;;;23.33;11.20;;;;;;;;;;5069792;28;20436;-50
2021/03/03 04:54:03;;;;;;;19.40;10.63;;;;;;;;;;5071004;28;20427;-49
2021/03/03 04:56:29;;;;;;;27.20;11.23;;;;;;;;;;5070517;28;20414;-50
2021/03/03 04:58:55;;;;;;;23.70;11.50;;;;;;;;;;5070546;28;20419;-50
2021/03/03 05:01:21;;;;;;;18.53;11.10;;;;;;;;;;5070501;28;20455;-49
2021/03/03 05:03:47;;;;;;;21.07;11.07;;;;;;;;;;5070659;28;20425;-49
2021/03/03 05:06:13;;;;;;;22.27;11.60;;;;;;;;;;5070407;28;20407;-49
2021/03/03 05:08:39;;;;;;;24.70;11.70;;;;;;;;;;5070433;28;20454;-50
2021/03/03 05:11:05;;;;;;;23.83;10.43;;;;;;;;;;5070292;28;20433;-50
2021/03/03 05:13:31;;;;;;;22.70;11.00;;;;;;;;;;5070602;28;20926;-50
2021/03/03 05:15:58;;;;;;;24.03;13.20;;;;;;;;;;5070470;28;20402;-50
2021/03/03 05:18:24;;;;;;;18.57;10.97;;;;;;;;;;5070304;28;20955;-51
2021/03/03 05:20:50;;;;;;;18.93;11.07;;;;;;;;;;5070348;28;20572;-51
2021/03/03 05:23:30;;;;;;;18.30;10.70;;;;;;;;;;5070299;28;20463;-50
2021/03/03 05:25:56;;;;;;;22.20;11.90;;;;;;;;;;5070472;28;20452;-49
2021/03/03 05:28:22;;;;;;;19.60;11.37;;;;;;;;;;5070053;28;20461;-49
2021/03/03 05:30:48;;;;;;;19.97;11.50;;;;;;;;;;5070470;28;20411;-50
2021/03/03 05:33:22;;;;;;;23.43;11.47;;;;;;;;;;5070123;28;20461;-52
2021/03/03 05:35:48;;;;;;;17.10;10.67;;;;;;;;;;5070420;28;20536;-49
2021/03/03 05:38:14;;;;;;;25.17;11.20;;;;;;;;;;5069972;28;20486;-51
2021/03/03 05:40:40;;;;;;;22.30;11.43;;;;;;;;;;5069895;28;20451;-52
2021/03/03 05:43:06;;;;;;;19.27;10.53;;;;;;;;;;5070191;28;20504;-49
2021/03/03 05:45:32;;;;;;;25.03;12.00;;;;;;;;;;5070344;28;20402;-49
2021/03/03 05:47:59;;;;;;;24.43;12.90;;;;;;;;;;5069866;28;20403;-51
2021/03/03 05:50:25;;;;;;;25.87;14.57;;;;;;;;;;5070344;28;20905;-49
2021/03/03 05:52:52;;;;;;;25.83;13.93;;;;;;;;;;5070157;28;20918;-51
2021/03/03 05:55:18;;;;;;;23.40;13.13;;;;;;;;;;5070190;28;20396;-49
2021/03/03 05:57:44;;;;;;;25.90;13.50;;;;;;;;;;5069879;28;20773;-49
2021/03/03 06:00:10;;;;;;;22.20;12.33;;;;;;;;;;5070116;28;20409;-50
2021/03/03 06:02:41;;;;;;;21.10;12.33;;;;;;;;;;5072464;28;20453;-49
2021/03/03 06:05:08;;;;;;;26.23;14.30;;;;;;;;;;5073827;28;20899;-53
2021/03/03 06:07:35;;;;;;;31.67;14.57;;;;;;;;;;5073603;28;20402;-49
2021/03/03 06:10:01;;;;;;;31.73;14.77;;;;;;;;;;5082279;28;20421;-49
2021/03/03 06:12:26;;;;;;;29.53;15.27;;;;;;;;;;5093068;28;20815;-49
2021/03/03 06:14:54;;;;;;;29.90;14.60;;;;;;;;;;5093672;28;20464;-49
2021/03/03 06:17:20;;;;;;;32.70;15.20;;;;;;;;;;5093582;28;20407;-50
2021/03/03 06:19:47;;;;;;;27.90;15.53;;;;;;;;;;5093684;28;20402;-51
2021/03/03 06:22:32;;;;;;;29.93;13.80;;;;;;;;;;5093650;28;20464;-49
2021/03/03 06:24:58;;;;;;;36.13;14.77;;;;;;;;;;5093530;28;20452;-52
2021/03/03 06:27:25;;;;;;;41.80;19.47;;;;;;;;;;5093333;28;20408;-52
2021/03/03 06:30:10;;;;;;;36.87;16.17;;;;;;;;;;5093606;28;20398;-50
2021/03/03 06:32:55;;;;;;;33.60;15.60;;;;;;;;;;5093709;28;20409;-51
2021/03/03 06:35:22;;;;;;;35.00;16.20;;;;;;;;;;5093416;28;20420;-52
2021/03/03 06:37:54;;;;;;;31.50;14.77;;;;;;;;;;5092625;28;20466;-50
2021/03/03 06:40:20;;;;;;;28.23;12.70;;;;;;;;;;5082752;28;20443;-52
2021/03/03 06:42:46;;;;;;;31.83;13.83;;;;;;;;;;5072190;28;20935;-51
2021/03/03 06:45:25;;;;;;;26.00;13.70;;;;;;;;;;5072628;28;20401;-52
2021/03/03 06:47:51;;;;;;;31.77;11.93;;;;;;;;;;5072117;28;20424;-50
2021/03/03 06:50:17;;;;;;;18.10;11.73;;;;;;;;;;5072455;28;20899;-51
2021/03/03 06:52:43;;;;;;;27.13;13.10;;;;;;;;;;5072187;28;20411;-50
2021/03/03 06:55:10;;;;;;;25.23;14.13;;;;;;;;;;5072932;28;20454;-49
2021/03/03 06:57:36;;;;;;;32.80;14.00;;;;;;;;;;5072436;28;20406;-50
2021/03/03 07:00:04;;;;;;;28.70;13.70;;;;;;;;;;5072826;28;20403;-50
2021/03/03 07:02:31;;;;;;;28.70;12.40;;;;;;;;;;5072475;28;20604;-52
2021/03/03 07:04:58;;;;;;;29.03;12.00;;;;;;;;;;5072550;28;20560;-51
2021/03/03 07:07:24;;;;;;;28.37;12.73;;;;;;;;;;5072368;28;20400;-52
2021/03/03 07:09:58;;;;;;;24.63;13.63;;;;;;;;;;5081679;28;20426;-51
2021/03/03 07:12:26;;;;;;;30.87;12.20;;;;;;;;;;5091851;28;20443;-51
2021/03/03 07:14:56;;;;;;;20.40;12.27;;;;;;;;;;5091802;28;21163;-50
2021/03/03 07:17:23;;;;;;;30.57;14.43;;;;;;;;;;5092477;28;20810;-50
2021/03/03 07:19:50;;;;;;;29.80;15.20;;;;;;;;;;5092469;28;20500;-50
2021/03/03 07:22:32;;;;;;;34.30;15.13;;;;;;;;;;5092480;28;20461;-49
2021/03/03 07:24:59;;;;;;;26.23;13.30;;;;;;;;;;5092388;28;20449;-49
2021/03/03 07:27:25;;;;;;;21.53;12.80;;;;;;;;;;5092290;28;20406;-49
2021/03/03 07:29:52;;;;;;;26.57;14.37;;;;;;;;;;5092324;28;20401;-50
2021/03/03 07:32:19;;;;;;;22.73;13.63;;;;;;;;;;5092646;28;20414;-49
2021/03/03 07:34:50;;;;;;;30.80;14.80;;;;;;;;;;5092061;28;20945;-49
2021/03/03 07:37:17;;;;;;;25.77;12.93;;;;;;;;;;5092104;28;20434;-50
2021/03/03 07:39:46;;;;;;;25.83;14.37;;;;;;;;;;5084610;28;20430;-50
2021/03/03 07:42:15;;;;;;;26.13;14.50;;;;;;;;;;5071929;28;20970;-50
2021/03/03 07:44:42;;;;;;;26.70;14.03;;;;;;;;;;5071790;28;20427;-50
2021/03/03 07:47:09;;;;;;;25.67;15.13;;;;;;;;;;5071902;28;20458;-50
2021/03/03 07:49:36;;;;;;;24.67;13.70;;;;;;;;;;5071476;28;20431;-50
2021/03/03 07:52:02;;;;;;;26.33;13.80;;;;;;;;;;5071942;28;20483;-49
2021/03/03 07:54:31;;;;;;;23.43;12.67;;;;;;;;;;5072037;28;20431;-49
2021/03/03 07:56:58;;;;;;;29.87;15.00;;;;;;;;;;5071429;28;20800;-51
2021/03/03 07:59:24;;;;;;;28.77;15.00;;;;;;;;;;5071715;28;20392;-51
2021/03/03 08:01:50;;;;;;;32.40;15.80;;;;;;;;;;5071458;28;20452;-51
2021/03/03 08:04:36;;;;;;;31.90;15.00;;;;;;;;;;5071518;28;20424;-50
2021/03/03 08:07:14;;;;;;;40.80;16.67;;;;;;;;;;5071111;28;20906;-50
2021/03/03 08:09:40;;;;;;;32.67;15.87;;;;;;;;;;5071396;28;20407;-49
2021/03/03 08:12:06;;;;;;;32.30;15.43;;;;;;;;;;5071900;28;20412;-51
2021/03/03 08:14:33;;;;;;;28.80;13.70;;;;;;;;;;5071344;28;20791;-51
2021/03/03 08:17:00;;;;;;;36.70;14.57;;;;;;;;;;5071046;28;20397;-50
2021/03/03 08:19:45;;;;;;;24.73;13.23;;;;;;;;;;5071253;28;20404;-50
2021/03/03 08:22:11;;;;;;;27.67;15.33;;;;;;;;;;5070936;28;20449;-50
2021/03/03 08:24:37;;;;;;;25.50;12.90;;;;;;;;;;5070979;28;20770;-50
2021/03/03 08:27:04;;;;;;;27.83;13.30;;;;;;;;;;5070994;28;20460;-49
2021/03/03 08:29:30;;;;;;;23.47;13.00;;;;;;;;;;5071069;28;20410;-50
2021/03/03 08:32:15;;;;;;;20.70;11.40;;;;;;;;;;5071225;28;20431;-50
2021/03/03 08:34:50;;;;;;;21.00;12.17;;;;;;;;;;5070579;28;20439;-50
2021/03/03 08:37:27;;;;;;;30.23;13.10;;;;;;;;;;5070929;28;20442;-50
2021/03/03 08:39:53;;;;;;;40.77;15.67;;;;;;;;;;5070823;28;20937;-50
2021/03/03 08:42:29;;;;;;;25.63;13.60;;;;;;;;;;5070429;28;20466;-50
2021/03/03 08:45:21;;;;;;;29.27;12.93;;;;;;;;;;5070635;28;20939;-50
2021/03/03 08:47:47;;;;;;;26.10;13.20;;;;;;;;;;5067901;28;20516;-50
2021/03/03 08:50:29;;;;;;;26.77;12.60;;;;;;;;;;5070726;28;20405;-50
2021/03/03 08:53:16;;;;;;;27.20;13.10;;;;;;;;;;5070869;28;20417;-52
2021/03/03 08:55:43;;;;;;;25.33;12.80;;;;;;;;;;5060109;28;20778;-52
2021/03/03 08:58:31;;;;;;;21.33;13.30;;;;;;;;;;5070416;28;20486;-50
2021/03/03 09:00:58;;;;;;;26.47;15.17;;;;;;;;;;5070408;28;20455;-49
2021/03/03 09:03:24;;;;;;;24.47;13.67;;;;;;;;;;5070681;28;20416;-51
2021/03/03 09:05:50;;;;;;;31.40;13.97;;;;;;;;;;5070475;28;20404;-50
2021/03/03 09:08:20;;;;;;;23.93;13.40;;;;;;;;;;5070393;28;20407;-50
2021/03/03 09:10:46;;;;;;;24.77;13.73;;;;;;;;;;5070155;28;20488;-52
2021/03/03 09:13:28;;;;;;;24.90;13.20;;;;;;;;;;5070329;28;20492;-50
2021/03/03 09:16:09;;;;;;;30.07;13.97;;;;;;;;;;5070474;28;20908;-49
2021/03/03 09:18:37;;;;;;;23.10;12.17;;;;;;;;;;5070452;28;20483;-54
2021/03/03 09:21:10;;;;;;;26.47;13.27;;;;;;;;;;5070807;28;20452;-51
2021/03/03 09:23:38;;;;;;;25.00;13.07;;;;;;;;;;5070805;28;20848;-50
2021/03/03 09:26:17;;;;;;;25.93;13.30;;;;;;;;;;5070438;28;20396;-50
2021/03/03 09:28:44;;;;;;;25.40;12.70;;;;;;;;;;5088403;28;20404;-53
2021/03/03 09:31:27;;;;;;;23.13;12.53;;;;;;;;;;5090533;28;20374;-50
2021/03/03 09:33:53;;;;;;;28.13;12.67;;;;;;;;;;5091005;28;20434;-50
2021/03/03 09:36:19;;;;;;;25.70;13.40;;;;;;;;;;5090712;28;20394;-51
2021/03/03 09:38:51;;;;;;;24.13;12.70;;;;;;;;;;5094369;28;20431;-50
2021/03/03 09:41:19;;;;;;;23.97;13.40;;;;;;;;;;5093026;28;20455;-49
2021/03/03 09:43:57;;;;;;;25.47;14.53;;;;;;;;;;5094581;28;20573;-52
2021/03/03 09:46:23;;;;;;;27.53;14.57;;;;;;;;;;5094454;28;20411;-50
2021/03/03 09:48:49;;;;;;;29.80;15.30;;;;;;;;;;5094050;28;20403;-49
2021/03/03 09:51:15;;;;;;;26.80;13.70;;;;;;;;;;5094454;28;20382;-50
2021/03/03 09:53:50;;;;;;;26.87;14.50;;;;;;;;;;5094070;28;20482;-52
2021/03/03 09:56:26;;;;;;;24.30;15.43;;;;;;;;;;5093713;28;20395;-50
2021/03/03 09:58:53;;;;;;;30.03;15.43;;;;;;;;;;5091119;28;20407;-54
2021/03/03 10:01:19;;;;;;;23.33;15.57;;;;;;;;;;5092233;28;20538;-50
2021/03/03 10:03:46;;;;;;;22.77;14.60;;;;;;;;;;5093982;28;20397;-50
2021/03/03 10:06:12;;;;;;;25.10;13.40;;;;;;;;;;5093977;28;20367;-52
2021/03/03 10:08:38;;;;;;;26.73;16.07;;;;;;;;;;5093909;28;20406;-50
2021/03/03 10:11:04;;;;;;;26.97;16.97;;;;;;;;;;5085454;28;20927;-52
2021/03/03 10:13:30;;;;;;;26.80;15.90;;;;;;;;;;5073591;28;20417;-52
2021/03/03 10:15:56;;;;;;;23.70;14.43;;;;;;;;;;5073479;28;20395;-53
2021/03/03 10:18:22;;;;;;;28.40;14.80;;;;;;;;;;5073327;28;20458;-53
2021/03/03 10:20:57;;;;;;;27.50;16.43;;;;;;;;;;5073272;28;20440;-53
2021/03/03 10:23:23;;;;;;;33.03;15.20;;;;;;;;;;5073496;28;20427;-52
2021/03/03 10:26:05;;;;;;;30.37;16.80;;;;;;;;;;5073330;28;20399;-50
2021/03/03 10:28:31;;;;;;;28.90;17.00;;;;;;;;;;5073257;28;20404;-51
2021/03/03 10:31:04;;;;;;;31.27;16.50;;;;;;;;;;5073323;28;20819;-52
2021/03/03 10:33:38;;;;;;;28.10;16.43;;;;;;;;;;5073030;28;21171;-50
2021/03/03 10:36:05;;;;;;;30.43;18.40;;;;;;;;;;5073092;28;20408;-50
2021/03/03 10:38:33;;;;;;;28.63;15.83;;;;;;;;;;5073019;28;20400;-50
2021/03/03 10:41:01;;;;;;;31.47;18.20;;;;;;;;;;5072381;28;20993;-51
2021/03/03 10:43:28;;;;;;;30.77;18.30;;;;;;;;;;5072934;28;20420;-50
2021/03/03 10:46:09;;;;;;;25.80;17.63;;;;;;;;;;5073117;28;20458;-50
2021/03/03 10:48:35;;;;;;;30.87;19.17;;;;;;;;;;5072749;28;20400;-53
2021/03/03 10:51:02;;;;;;;42.07;20.63;;;;;;;;;;5073119;28;20439;-50
2021/03/03 10:53:43;;;;;;;29.13;18.50;;;;;;;;;;5072902;28;20427;-50
2021/03/03 10:56:19;;;;;;;35.63;20.10;;;;;;;;;;5072647;28;20416;-55
2021/03/03 10:58:45;;;;;;;38.97;21.60;;;;;;;;;;5092720;28;20414;-53
2021/03/03 11:01:11;;;;;;;31.40;20.70;;;;;;;;;;5093176;28;20989;-56
2021/03/03 11:03:52;;;;;;;33.70;21.60;;;;;;;;;;5093058;28;20581;-52
2021/03/03 11:06:18;;;;;;;36.90;23.10;;;;;;;;;;5092958;28;20391;-53
2021/03/03 11:08:44;;;;;;;32.70;23.07;;;;;;;;;;5092525;28;20554;-53
2021/03/03 11:11:10;;;;;;;37.70;24.10;;;;;;;;;;5081690;28;20421;-52
2021/03/03 11:13:36;;;;;;;38.27;23.83;;;;;;;;;;5072378;28;20416;-55
2021/03/03 11:16:03;;;;;;;37.73;23.13;;;;;;;;;;5072435;28;20454;-53
2021/03/03 11:18:29;;;;;;;36.00;22.83;;;;;;;;;;5072252;28;20407;-50
2021/03/03 11:20:55;;;;;;;41.73;24.40;;;;;;;;;;5072267;28;20470;-50
2021/03/03 11:23:21;;;;;;;40.20;24.83;;;;;;;;;;5072338;28;20423;-50
2021/03/03 11:25:47;;;;;;;34.57;24.30;;;;;;;;;;5072122;28;20411;-50
2021/03/03 11:28:13;;;;;;;33.67;24.93;;;;;;;;;;5072078;28;20396;-51
2021/03/03 11:30:39;;;;;;;41.93;24.17;;;;;;;;;;5072060;28;20405;-51
2021/03/03 11:33:05;;;;;;;36.10;25.40;;;;;;;;;;5072117;28;20426;-52
2021/03/03 11:35:31;;;;;;;35.57;25.63;;;;;;;;;;5071943;28;20432;-52
2021/03/03 11:37:57;;;;;;;35.03;24.70;;;;;;;;;;5071815;28;20408;-52
2021/03/03 11:40:24;;;;;;;42.73;26.33;;;;;;;;;;5071558;28;20401;-56
2021/03/03 11:42:51;;;;;;;43.37;26.33;;;;;;;;;;5083693;28;20501;-50
2021/03/03 11:45:17;;;;;;;42.10;26.00;;;;;;;;;;5092382;28;20815;-53
2021/03/03 11:47:43;;;;;;;35.23;25.63;;;;;;;;;;5091746;28;20475;-50
2021/03/03 11:50:10;;;;;;;32.27;22.67;;;;;;;;;;5092137;28;20486;-50
2021/03/03 11:52:36;;;;;;;33.80;24.17;;;;;;;;;;5091887;28;20403;-53
2021/03/03 11:55:02;;;;;;;38.77;24.20;;;;;;;;;;5091980;28;20427;-50
2021/03/03 11:57:29;;;;;;;31.63;21.57;;;;;;;;;;5091602;28;20446;-53
2021/03/03 11:59:55;;;;;;;36.90;23.13;;;;;;;;;;5091425;28;20395;-51
2021/03/03 12:02:21;;;;;;;35.33;23.30;;;;;;;;;;5091637;28;20962;-52
2021/03/03 12:04:47;;;;;;;32.00;23.67;;;;;;;;;;5091799;28;20411;-52
2021/03/03 12:07:13;;;;;;;33.10;22.40;;;;;;;;;;5090308;28;20419;-52
2021/03/03 12:09:39;;;;;;;38.13;24.30;;;;;;;;;;5091717;28;20758;-53
2021/03/03 12:12:05;;;;;;;28.00;19.43;;;;;;;;;;5080935;28;20425;-53
2021/03/03 12:14:31;;;;;;;37.53;21.80;;;;;;;;;;5084793;28;20796;-51
2021/03/03 12:16:58;;;;;;;29.30;20.20;;;;;;;;;;5091613;28;20427;-51
2021/03/03 12:19:24;;;;;;;28.73;20.10;;;;;;;;;;5091486;28;20410;-50
2021/03/03 12:21:50;;;;;;;35.63;22.20;;;;;;;;;;5091458;28;20533;-50
2021/03/03 12:24:16;;;;;;;32.50;22.20;;;;;;;;;;5091266;28;20903;-49
2021/03/03 12:26:42;;;;;;;31.50;20.57;;;;;;;;;;5091302;28;20486;-50
2021/03/03 12:29:08;;;;;;;32.80;20.10;;;;;;;;;;5091010;28;20395;-50
2021/03/03 12:31:34;;;;;;;26.90;21.00;;;;;;;;;;5091317;28;20400;-50
2021/03/03 12:34:00;;;;;;;25.33;19.80;;;;;;;;;;5090974;28;20439;-51
2021/03/03 12:36:26;;;;;;;27.73;19.07;;;;;;;;;;5091118;28;20407;-51
2021/03/03 12:38:52;;;;;;;30.73;20.00;;;;;;;;;;5090905;28;20411;-51
2021/03/03 12:41:18;;;;;;;32.33;20.60;;;;;;;;;;5080547;28;20508;-53
2021/03/03 12:43:44;;;;;;;34.83;20.03;;;;;;;;;;5070881;28;20450;-53
2021/03/03 12:46:10;;;;;;;31.40;20.93;;;;;;;;;;5070683;28;20404;-50
2021/03/03 12:48:36;;;;;;;26.40;20.00;;;;;;;;;;5070703;28;20829;-51
2021/03/03 12:51:02;;;;;;;27.53;20.27;;;;;;;;;;5090843;28;20760;-50
2021/03/03 12:53:28;;;;;;;37.83;22.33;;;;;;;;;;5090890;28;20449;-50
2021/03/03 12:55:54;;;;;;;33.13;21.60;;;;;;;;;;5091000;28;20422;-50
2021/03/03 12:58:20;;;;;;;36.63;21.17;;;;;;;;;;5090563;28;20950;-50
2021/03/03 13:00:47;;;;;;;31.90;21.63;;;;;;;;;;5090715;28;20400;-51
2021/03/03 13:03:13;;;;;;;27.93;21.30;;;;;;;;;;5090789;28;20445;-53
2021/03/03 13:05:39;;;;;;;35.90;23.40;;;;;;;;;;5090693;28;20414;-53
2021/03/03 13:08:05;;;;;;;34.30;21.03;;;;;;;;;;5090578;28;20392;-49
2021/03/03 13:10:31;;;;;;;37.90;22.47;;;;;;;;;;5088958;28;20422;-53
2021/03/03 13:12:57;;;;;;;36.47;22.87;;;;;;;;;;5070018;28;21045;-50
2021/03/03 13:15:23;;;;;;;36.07;22.47;;;;;;;;;;5070423;28;20426;-51
2021/03/03 13:17:49;;;;;;;34.40;22.70;;;;;;;;;;5070272;28;20410;-50
2021/03/03 13:20:16;;;;;;;29.70;22.27;;;;;;;;;;5070564;28;20396;-50
2021/03/03 13:22:42;;;;;;;39.53;22.37;;;;;;;;;;5070427;28;20467;-53
2021/03/03 13:25:08;;;;;;;28.40;18.97;;;;;;;;;;5070563;28;20786;-52
2021/03/03 13:27:35;;;;;;;30.23;19.90;;;;;;;;;;5070111;28;20411;-54
2021/03/03 13:30:01;;;;;;;31.70;18.30;;;;;;;;;;5070455;28;20948;-56
2021/03/03 13:32:27;;;;;;;27.47;19.20;;;;;;;;;;5070211;28;20417;-52
2021/03/03 13:34:53;;;;;;;28.00;19.00;;;;;;;;;;5070245;28;20806;-54
2021/03/03 13:37:19;;;;;;;34.30;20.20;;;;;;;;;;5070121;28;20493;-53
2021/03/03 13:39:45;;;;;;;29.73;19.53;;;;;;;;;;5070413;28;20408;-50
2021/03/03 13:42:11;;;;;;;30.90;17.30;;;;;;;;;;5076436;28;20467;-51
2021/03/03 13:44:40;;;;;;;36.87;21.43;;;;;;;;;;5078940;28;20466;-50
2021/03/03 13:47:06;;;;;;;24.37;16.43;;;;;;;;;;5073696;28;20427;-50
2021/03/03 13:49:33;;;;;;;27.47;18.60;;;;;;;;;;5072360;28;20764;-53
2021/03/03 13:51:59;;;;;;;28.77;19.30;;;;;;;;;;5072227;28;20401;-52
2021/03/03 13:54:25;;;;;;;32.37;18.67;;;;;;;;;;5082352;28;20453;-52
2021/03/03 13:56:51;;;;;;;27.43;18.07;;;;;;;;;;5091690;28;20395;-52
2021/03/03 13:59:17;;;;;;;28.23;16.87;;;;;;;;;;5091448;28;20899;-53
2021/03/03 14:01:43;;;;;;;28.70;18.20;;;;;;;;;;5091599;28;20479;-51
2021/03/03 14:04:09;;;;;;;22.23;17.63;;;;;;;;;;5091017;28;20474;-51
2021/03/03 14:06:35;;;;;;;20.27;15.50;;;;;;;;;;5091357;28;20410;-52
2021/03/03 14:09:01;;;;;;;27.07;17.33;;;;;;;;;;5090767;28;20400;-53
2021/03/03 14:11:27;;;;;;;29.67;18.10;;;;;;;;;;5087796;28;20712;-52
2021/03/03 14:13:53;;;;;;;26.30;16.53;;;;;;;;;;5080132;28;20435;-53
2021/03/03 14:16:19;;;;;;;34.17;18.27;;;;;;;;;;5081736;28;20431;-54
2021/03/03 14:18:46;;;;;;;30.43;19.50;;;;;;;;;;5092577;28;20542;-52
2021/03/03 14:21:12;;;;;;;28.93;19.57;;;;;;;;;;5091305;28;20469;-51
2021/03/03 14:23:38;;;;;;;24.73;18.07;;;;;;;;;;5094689;28;20805;-52